M I D A S
Marine Information and Data Acquisition System
Tripno 585 of the Zeeleeuw from 2003-09-08 06:55:49 to 2003-09-08 15:36:28
Back to CruiseResearch ActivitiesStationsMapUnderway DataData graphs

EquipmentUnitsComments
TimeDGPSUTC
LatitudeDGPSDM.mWGS84
LongitudeDGPSDM.mWGS84
SpeedMeteo Stationm/sRelative wind speed
DirectionMeteo StationdegRelative wind direction
TemperatureMeteo Stationdeg CelciusAir temperature
PressureMeteo StationPaAtmospheric pressure
HumidityMeteo Station%Relative humidity
Missing or incorrect values are displayed as -999
Metereological data collected by the RV Zeeleeuw from 2003-09-08 06:55:49 to 2003-09-08 15:36:28
Time Latitude Longitude Speed Direction Temperature Pressure Humidity
2003-09-08 06:56 51°13.81 2°55.65 2.8 1 13.3 100940 79
2003-09-08 06:57 51°13.92 2°55.57 3.6 8 13.4 100940 78
2003-09-08 06:58 51°14.05 2°55.47 3.6 1 13.5 100940 78
2003-09-08 06:59 51°14.18 2°55.37 4.2 2 13.7 100940 77
2003-09-08 07:00 51°14.28 2°55.22 4.6 2 13.9 100930 77
2003-09-08 07:01 51°14.38 2°55.04 5.1 346 14.1 100930 76
2003-09-08 07:02 51°14.5 2°54.9 5.5 343 14.3 100940 76
2003-09-08 07:03 51°14.65 2°54.74 5.7 347 14.4 100940 75
2003-09-08 07:04 51°14.82 2°54.55 6.1 343 14.4 100940 74
2003-09-08 07:05 51°14.98 2°54.33 7.2 349 14.5 100940 75
2003-09-08 07:06 51°15.04 2°54 8.7 348 14.6 100940 76
2003-09-08 07:07 51°15.09 2°53.65 8.2 349 14.6 100930 75
2003-09-08 07:08 51°15.14 2°53.3 8.4 350 14.7 100930 75
2003-09-08 07:09 51°15.19 2°52.94 8.2 349 14.8 100930 76
2003-09-08 07:10 51°15.23 2°52.59 8.2 347 14.8 100930 76
2003-09-08 07:11 51°15.27 2°52.23 7.6 345 14.9 100930 76
2003-09-08 07:12 51°15.3 2°51.87 7.5 343 14.9 100930 76
2003-09-08 07:13 51°15.32 2°51.5 8.5 351 14.9 100920 76
2003-09-08 07:14 51°15.33 2°51.14 7.1 352 14.9 100930 76
2003-09-08 07:15 51°15.31 2°50.77 8.6 349 15 100920 76
2003-09-08 07:16 51°15.28 2°50.41 7.7 353 15 100920 75
2003-09-08 07:17 51°15.24 2°50.05 7.5 350 15 100920 74
2003-09-08 07:18 51°15.21 2°49.69 8.2 351 15 100920 74
2003-09-08 07:19 51°15.18 2°49.33 8.1 357 15.1 100920 74
2003-09-08 07:20 51°15.14 2°48.97 8.1 354 15.1 100910 73
2003-09-08 07:21 51°15.11 2°48.61 8.9 352 15.2 100910 74
2003-09-08 07:22 51°15.08 2°48.25 7.6 348 15.2 100920 74
2003-09-08 07:23 51°15.05 2°47.89 8.8 358 15.2 100920 73
2003-09-08 07:24 51°15.02 2°47.53 7.8 349 15.3 100910 72
2003-09-08 07:25 51°14.99 2°47.18 8.4 357 15.4 100910 72
2003-09-08 07:26 51°14.96 2°46.82 8.4 348 15.4 100920 72
2003-09-08 07:27 51°14.93 2°46.47 8.4 353 15.5 100910 72
2003-09-08 07:28 51°14.9 2°46.11 8.4 353 15.5 100910 72
2003-09-08 07:29 51°14.87 2°45.75 8.6 355 15.5 100910 72
2003-09-08 07:30 51°14.84 2°45.39 8.3 354 15.6 100910 72
2003-09-08 07:31 51°14.81 2°45.03 8.8 349 15.6 100910 71
2003-09-08 07:32 51°14.78 2°44.67 9.2 354 15.7 100910 71
2003-09-08 07:33 51°14.74 2°44.29 9.2 354 15.7 100910 71
2003-09-08 07:34 51°14.71 2°43.91 9.6 352 15.8 100910 72
2003-09-08 07:35 51°14.67 2°43.52 9.3 351 15.7 100910 71
2003-09-08 07:36 51°14.64 2°43.14 10.3 345 15.8 100910 72
2003-09-08 07:37 51°14.6 2°42.76 9.6 345 15.8 100910 71
2003-09-08 07:38 51°14.57 2°42.38 10.1 347 15.9 100900 72
2003-09-08 07:39 51°14.54 2°42 8.8 350 15.9 100910 72
2003-09-08 07:40 51°14.51 2°41.63 9.3 348 15.9 100910 72
2003-09-08 07:41 51°14.48 2°41.26 8.9 350 15.9 100910 73
2003-09-08 07:42 51°14.49 2°40.89 8.5 343 15.9 100910 73
2003-09-08 07:43 51°14.54 2°40.53 7.8 336 15.9 100910 72
2003-09-08 07:44 51°14.64 2°40.2 6.9 333 15.9 100910 71
2003-09-08 07:45 51°14.78 2°39.92 5.7 336 16 100910 70
2003-09-08 07:46 51°14.96 2°39.71 4.8 334 16 100920 69
2003-09-08 07:47 51°15.17 2°39.62 3.3 345 16.1 100920 68
2003-09-08 07:48 51°15.38 2°39.62 3.6 342 16.1 100920 67
2003-09-08 07:49 51°15.6 2°39.66 4.2 339 16.2 100910 67
2003-09-08 07:50 51°15.8 2°39.72 3.9 356 16.2 100920 67
2003-09-08 07:51 51°16.01 2°39.8 2.9 348 16.2 100920 67
2003-09-08 07:52 51°16.22 2°39.87 3.3 4 16.3 100910 67
2003-09-08 07:53 51°16.43 2°39.94 3.8 4 16.3 100920 68
2003-09-08 07:54 51°16.64 2°40.01 3.6 14 16.4 100920 68
2003-09-08 07:55 51°16.85 2°40.1 3.5 5 16.4 100920 68
2003-09-08 07:56 51°17.03 2°40.2 1.7 6 16.5 100920 69
2003-09-08 07:57 51°17.13 2°40.23 0.5 301 16.5 100920 69
2003-09-08 07:58 51°17.18 2°40.27 1 136 16.6 100920 69
2003-09-08 07:59 51°17.22 2°40.32 1.9 133 16.7 100920 69
2003-09-08 08:00 51°17.26 2°40.37 2.5 138 16.9 100920 68
2003-09-08 08:01 51°17.3 2°40.4 1.8 173 16.9 100920 68
2003-09-08 08:02 51°17.31 2°40.4 2.5 211 16.8 100920 67
2003-09-08 08:03 51°17.31 2°40.39 2.2 203 16.8 100910 66
2003-09-08 08:04 51°17.32 2°40.38 3.1 223 16.7 100910 66
2003-09-08 08:05 51°17.32 2°40.37 2.3 223 16.6 100910 66
2003-09-08 08:06 51°17.38 2°40.35 1.6 290 16.5 100910 67
2003-09-08 08:07 51°17.45 2°40.44 3.9 55 16.6 100920 68
2003-09-08 08:08 51°17.4 2°40.58 4.5 55 16.6 100910 67
2003-09-08 08:09 51°17.41 2°40.69 0.1 100 16.4 100910 67
2003-09-08 08:10 51°17.46 2°40.59 5.7 342 16.5 100910 68
2003-09-08 08:11 51°17.44 2°40.49 2.5 328 16.6 100910 67
2003-09-08 08:12 51°17.43 2°40.49 2.7 3 16.7 100910 67
2003-09-08 08:13 51°17.42 2°40.47 2.4 352 16.8 100910 67
2003-09-08 08:14 51°17.41 2°40.38 2.5 298 16.9 100910 66
2003-09-08 08:15 51°17.49 2°40.41 2.9 47 17 100910 66
2003-09-08 08:16 51°17.52 2°40.62 3.8 27 16.9 100910 65
2003-09-08 08:17 51°17.58 2°40.73 0.2 341 16.8 100910 66
2003-09-08 08:18 51°17.59 2°40.73 2.1 246 16.8 100910 66
2003-09-08 08:19 51°17.6 2°40.71 2.1 239 16.8 100910 66
2003-09-08 08:20 51°17.62 2°40.69 1.5 274 16.8 100910 67
2003-09-08 08:21 51°17.7 2°40.78 2.7 43 16.9 100920 67
2003-09-08 08:22 51°17.75 2°40.87 2.8 150 16.9 100910 67
2003-09-08 08:23 51°17.74 2°40.88 2.9 145 16.9 100910 68
2003-09-08 08:24 51°17.75 2°40.91 2 110 16.8 100910 68
2003-09-08 08:25 51°17.8 2°40.95 1.7 322 16.8 100910 68
2003-09-08 08:26 51°17.86 2°40.97 2.8 219 16.9 100920 69
2003-09-08 08:27 51°17.86 2°40.98 2 195 17.1 100910 68
2003-09-08 08:28 51°17.86 2°40.98 2.4 233 17.2 100910 68
2003-09-08 08:29 51°17.91 2°41.01 2.5 106 17.2 100910 67
2003-09-08 08:30 51°17.97 2°41.1 0.6 124 17.1 100910 66
2003-09-08 08:31 51°18 2°41.13 2 191 17.1 100910 66
2003-09-08 08:32 51°18 2°41.13 1.3 187 17.2 100910 66
2003-09-08 08:33 51°18.01 2°41.14 1.1 233 17.4 100910 66
2003-09-08 08:34 51°18.04 2°41.08 5.2 318 17.3 100910 65
2003-09-08 08:35 51°18.06 2°40.93 3.9 290 17.3 100910 65
2003-09-08 08:36 51°18.07 2°40.89 2.1 222 17.3 100910 65
2003-09-08 08:37 51°18.07 2°40.89 2.6 209 17.1 100910 65
2003-09-08 08:38 51°18.09 2°40.88 3.2 262 17 100910 66
2003-09-08 08:39 51°18.09 2°40.8 4.5 338 16.9 100900 66
2003-09-08 08:40 51°18.02 2°40.78 4.6 30 17 100900 67
2003-09-08 08:41 51°17.95 2°40.79 3.8 3 17 100910 67
2003-09-08 08:42 51°17.94 2°40.8 2.5 9 16.9 100910 66
2003-09-08 08:43 51°17.94 2°40.81 2.5 12 16.8 100900 66
2003-09-08 08:44 51°17.91 2°40.82 4.2 2 16.8 100900 66
2003-09-08 08:45 51°17.86 2°40.74 5 332 16.8 100900 66
2003-09-08 08:46 51°17.81 2°40.62 4 344 16.8 100900 66
2003-09-08 08:47 51°17.79 2°40.59 1.7 326 16.9 100900 66
2003-09-08 08:48 51°17.78 2°40.6 2.3 317 17 100900 66
2003-09-08 08:49 51°17.77 2°40.6 3 334 17.3 100900 66
2003-09-08 08:50 51°17.73 2°40.54 4.7 340 17.3 100890 65
2003-09-08 08:51 51°17.68 2°40.45 4 338 17.2 100890 64
2003-09-08 08:52 51°17.65 2°40.43 2.3 324 17.2 100890 65
2003-09-08 08:53 51°17.64 2°40.44 2.7 324 17.2 100890 65
2003-09-08 08:54 51°17.63 2°40.44 3.2 323 17.4 100890 65
2003-09-08 08:55 51°17.6 2°40.42 4.6 350 17.5 100880 64
2003-09-08 08:56 51°17.55 2°40.37 4.2 328 17.4 100880 64
2003-09-08 08:57 51°17.53 2°40.35 2.9 275 17.4 100880 64
2003-09-08 08:58 51°17.53 2°40.35 3 298 17.2 100880 63
2003-09-08 08:59 51°17.49 2°40.28 4.4 348 17.1 100880 64
2003-09-08 09:00 51°17.43 2°40.21 4.7 343 17.1 100880 64
2003-09-08 09:01 51°17.38 2°40.19 2.2 336 17.1 100880 64
2003-09-08 09:02 51°17.37 2°40.2 2.9 324 17.2 100880 65
2003-09-08 09:03 51°17.33 2°40.17 3.5 333 17.3 100880 64
2003-09-08 09:04 51°17.27 2°40.08 4.5 346 17.4 100870 63
2003-09-08 09:05 51°17.23 2°40.03 2.4 315 17.4 100880 63
2003-09-08 09:06 51°17.22 2°40.02 2.5 289 17.4 100880 62
2003-09-08 09:07 51°17.22 2°40.02 2.3 292 17.4 100870 62
2003-09-08 09:08 51°17.23 2°39.99 1.3 303 17.3 100870 61
2003-09-08 09:09 51°17.28 2°39.91 3 343 17.4 100870 62
2003-09-08 09:10 51°17.34 2°39.84 0.6 306 17.4 100870 61
2003-09-08 09:11 51°17.35 2°39.85 0.2 173 17.4 100870 61
2003-09-08 09:12 51°17.38 2°39.89 2 22 17.5 100870 61
2003-09-08 09:13 51°17.46 2°39.96 1.1 7 17.4 100870 59
2003-09-08 09:14 51°17.49 2°40.01 0.7 181 17.3 100870 60
2003-09-08 09:15 51°17.5 2°40.05 0.3 182 17.4 100870 61
2003-09-08 09:16 51°17.55 2°40.08 1.8 9 17.5 100860 60
2003-09-08 09:17 51°17.63 2°40.12 1.8 136 17.5 100870 61
2003-09-08 09:18 51°17.64 2°40.15 1.6 159 17.6 100870 61
2003-09-08 09:19 51°17.65 2°40.18 0.8 125 17.5 100870 61
2003-09-08 09:20 51°17.7 2°40.21 1.4 71 17.5 100860 61
2003-09-08 09:21 51°17.75 2°40.24 1.8 127 17.4 100860 60
2003-09-08 09:22 51°17.75 2°40.27 1.2 139 17.4 100860 61
2003-09-08 09:23 51°17.78 2°40.3 1 82 17.3 100860 61
2003-09-08 09:24 51°17.86 2°40.33 2.3 35 17.3 100860 60
2003-09-08 09:25 51°17.92 2°40.4 0.8 116 17.1 100860 61
2003-09-08 09:26 51°17.92 2°40.44 1.7 149 17 100860 62
2003-09-08 09:27 51°17.93 2°40.48 0.8 127 17.1 100860 61
2003-09-08 09:28 51°17.99 2°40.52 1.9 54 17.2 100860 62
2003-09-08 09:29 51°18.04 2°40.56 1.6 127 17.1 100860 62
2003-09-08 09:30 51°18.05 2°40.6 1.3 129 17.1 100860 63
2003-09-08 09:31 51°18.06 2°40.63 1.3 143 17.1 100860 63
2003-09-08 09:32 51°18.12 2°40.66 1.1 102 17.2 100860 63
2003-09-08 09:33 51°18.17 2°40.7 2.4 164 17.3 100860 63
2003-09-08 09:34 51°18.17 2°40.73 1.9 172 17.3 100860 62
2003-09-08 09:35 51°18.17 2°40.76 2.1 150 17.3 100850 62
2003-09-08 09:36 51°18.18 2°40.8 1.5 126 17.3 100860 62
2003-09-08 09:37 51°18.19 2°40.83 1.6 125 17.3 100850 63
2003-09-08 09:38 51°18.2 2°40.87 1 150 17.4 100850 62
2003-09-08 09:39 51°18.23 2°40.91 0.7 98 17.4 100850 62
2003-09-08 09:40 51°18.28 2°40.85 1.7 350 17.5 100850 63
2003-09-08 09:41 51°18.26 2°40.74 3.2 344 17.5 100850 62
2003-09-08 09:42 51°18.25 2°40.59 2.2 351 17.4 100850 60
2003-09-08 09:43 51°18.24 2°40.46 1.1 315 17.4 100850 61
2003-09-08 09:44 51°18.23 2°40.43 1.5 277 17.5 100850 61
2003-09-08 09:45 51°18.22 2°40.44 2.3 284 17.5 100850 61
2003-09-08 09:46 51°18.2 2°40.43 2.9 316 17.7 100850 61
2003-09-08 09:47 51°18.13 2°40.38 3.4 330 17.8 100850 60
2003-09-08 09:48 51°18.11 2°40.34 1.9 318 17.9 100850 58
2003-09-08 09:49 51°18.1 2°40.35 2 304 18 100850 63
2003-09-08 09:50 51°18.08 2°40.37 2.6 295 18.1 100850 58
2003-09-08 09:51 51°18.04 2°40.34 3.9 332 18.1 100850 58
2003-09-08 09:52 51°17.99 2°40.25 1.9 328 18.1 100850 57
2003-09-08 09:53 51°18 2°40.18 1.6 246 18.1 100850 57
2003-09-08 09:54 51°18 2°40.18 1 256 17.8 100850 56
2003-09-08 09:55 51°18 2°40.19 1.9 276 17.7 100850 58
2003-09-08 09:56 51°17.99 2°40.19 1.9 44 17.7 100850 58
2003-09-08 09:57 51°17.93 2°40.12 3 325 17.8 100840 58
2003-09-08 09:58 51°17.88 2°40.06 2.7 228 17.9 100840 57
2003-09-08 09:59 51°17.85 2°40.04 2.7 290 18 100840 58
2003-09-08 10:00 51°17.84 2°40.05 2.2 307 18 100840 58
2003-09-08 10:01 51°17.82 2°40.05 3.1 328 18.1 100840 57
2003-09-08 10:02 51°17.79 2°40.01 2.6 228 18.1 100840 57
2003-09-08 10:03 51°17.75 2°39.93 4 348 18.2 100840 57
2003-09-08 10:04 51°17.71 2°39.91 2.6 317 18.1 100840 58
2003-09-08 10:05 51°17.7 2°39.94 2.5 326 18.1 100840 57
2003-09-08 10:06 51°17.69 2°39.97 3 319 18.2 100840 57
2003-09-08 10:07 51°17.66 2°39.94 2.4 42 18.2 100840 56
2003-09-08 10:08 51°17.63 2°39.82 3.3 330 18.2 100840 57
2003-09-08 10:09 51°17.59 2°39.75 2.1 314 18.1 100830 57
2003-09-08 10:10 51°17.57 2°39.76 2.5 296 18.1 100830 57
2003-09-08 10:11 51°17.55 2°39.76 2.9 42 18.2 100830 57
2003-09-08 10:12 51°17.5 2°39.7 4.3 342 18.2 100830 56
2003-09-08 10:13 51°17.45 2°39.65 2.7 337 18.2 100830 56
2003-09-08 10:14 51°17.44 2°39.63 1.4 305 18.1 100830 55
2003-09-08 10:15 51°17.44 2°39.63 1.1 282 18.2 100830 55
2003-09-08 10:16 51°17.45 2°39.61 1.6 317 18.2 100830 55
2003-09-08 10:17 51°17.42 2°39.55 3.7 342 18.2 100830 55
2003-09-08 10:18 51°17.34 2°39.5 3.1 334 18 100830 55
2003-09-08 10:19 51°17.31 2°39.47 1.7 298 18 100830 56
2003-09-08 10:20 51°17.3 2°39.47 2.3 269 18 100830 55
2003-09-08 10:21 51°17.3 2°39.47 0.6 248 17.8 100830 55
2003-09-08 10:22 51°17.32 2°39.4 1.6 327 17.8 100830 56
2003-09-08 10:23 51°17.35 2°39.3 1.8 332 17.9 100820 57
2003-09-08 10:24 51°17.37 2°39.26 0.6 246 18 100820 56
2003-09-08 10:25 51°17.4 2°39.27 0.9 224 18.1 100820 57
2003-09-08 10:26 51°17.42 2°39.29 0.7 204 18.1 100820 55
2003-09-08 10:27 51°17.44 2°39.32 1.2 165 18.2 100820 56
2003-09-08 10:28 51°17.46 2°39.34 1 177 18.2 100820 54
2003-09-08 10:29 51°17.48 2°39.36 0.7 179 18.1 100820 54
2003-09-08 10:30 51°17.5 2°39.39 1.1 171 18.1 100820 55
2003-09-08 10:31 51°17.51 2°39.41 0.7 207 18.1 100820 55
2003-09-08 10:32 51°17.53 2°39.43 1.3 205 18.2 100820 55
2003-09-08 10:33 51°17.54 2°39.46 1 223 18.2 100820 54
2003-09-08 10:34 51°17.55 2°39.48 0.8 219 18.3 100820 55
2003-09-08 10:35 51°17.56 2°39.51 1.3 221 18.3 100820 54
2003-09-08 10:36 51°17.57 2°39.53 1.5 239 18.2 100820 53
2003-09-08 10:37 51°17.58 2°39.56 1 238 18.1 100820 53
2003-09-08 10:38 51°17.59 2°39.59 0.9 232 18 100820 53
2003-09-08 10:39 51°17.59 2°39.62 1.2 251 18 100820 53
2003-09-08 10:40 51°17.6 2°39.64 0.8 252 18 100820 53
2003-09-08 10:41 51°17.6 2°39.68 1.2 263 17.9 100820 53
2003-09-08 10:42 51°17.61 2°39.71 1.1 257 18 100820 53
2003-09-08 10:43 51°17.61 2°39.74 1.1 260 17.8 100810 53
2003-09-08 10:44 51°17.62 2°39.78 1.3 277 17.9 100810 54
2003-09-08 10:45 51°17.62 2°39.81 1 285 17.9 100810 54
2003-09-08 10:46 51°17.63 2°39.85 1.3 294 18 100810 55
2003-09-08 10:47 51°17.63 2°39.88 1.6 315 18.2 100810 54
2003-09-08 10:48 51°17.63 2°39.92 0.9 332 18.4 100810 54
2003-09-08 10:49 51°17.64 2°39.96 1 346 18.6 100810 54
2003-09-08 10:50 51°17.64 2°40 1.5 340 18.8 100810 53
2003-09-08 10:51 51°17.64 2°40.04 1.2 347 19.1 100810 51
2003-09-08 10:52 51°17.65 2°40.08 0.9 8 19.1 100810 51
2003-09-08 10:53 51°17.65 2°40.13 0.9 356 19 100810 51
2003-09-08 10:54 51°17.66 2°40.17 1.5 346 19.1 100810 51
2003-09-08 10:55 51°17.63 2°40.26 3.2 340 19.1 100800 50
2003-09-08 10:56 51°17.5 2°40.23 4.9 358 19 100800 50
2003-09-08 10:57 51°17.35 2°40.03 6.4 6 18.6 100800 51
2003-09-08 10:58 51°17.22 2°39.77 5.9 6 18.2 100800 53
2003-09-08 10:59 51°17.12 2°39.48 6.3 3 17.9 100800 54
2003-09-08 11:00 51°17.09 2°39.21 3.3 15 17.7 100800 53
2003-09-08 11:01 51°17.14 2°39.13 1.3 60 17.7 100800 52
2003-09-08 11:02 51°17.16 2°39.16 1 62 17.6 100800 52
2003-09-08 11:03 51°17.18 2°39.2 1.4 62 17.6 100800 53
2003-09-08 11:04 51°17.19 2°39.23 0.5 53 17.5 100800 53
2003-09-08 11:05 51°17.2 2°39.27 0.9 64 17.5 100800 54
2003-09-08 11:06 51°17.22 2°39.31 1.6 28 17.4 100800 54
2003-09-08 11:07 51°17.29 2°39.34 2.6 41 17.4 100790 57
2003-09-08 11:08 51°17.34 2°39.24 2.3 12 17.2 100800 56
2003-09-08 11:09 51°17.25 2°39.21 4 356 17.3 100790 56
2003-09-08 11:10 51°17.17 2°39.44 7 353 17.4 100790 55
2003-09-08 11:11 51°17.01 2°39.41 5.4 1 17.5 100790 55
2003-09-08 11:12 51°16.97 2°39.14 6.4 20 17.5 100790 55
2003-09-08 11:13 51°17.14 2°39.04 7.1 11 17.5 100780 54
2003-09-08 11:14 51°17.21 2°39.28 4.3 348 17.5 100780 54
2003-09-08 11:15 51°17.15 2°39.38 1.9 351 17.5 100790 55
2003-09-08 11:16 51°17.11 2°39.28 2.5 9 17.7 100780 55
2003-09-08 11:17 51°17.09 2°39.16 1.5 16 17.8 100780 54
2003-09-08 11:18 51°17.08 2°39.14   4 18 100780 53
2003-09-08 11:19 51°17.06 2°39.15 0.1 318 18.2 100780 53
2003-09-08 11:20 51°17.05 2°39.17 1.1 289 18.5 100780 52
2003-09-08 11:21 51°17.04 2°39.2 0.9 278 18.8 100770 52
2003-09-08 11:22 51°17.03 2°39.23 0.8 257 19 100770 51
2003-09-08 11:23 51°17 2°39.28 3.2 344 19 100770 51
2003-09-08 11:24 51°16.98 2°39.47 4.8 11 19 100760 51
2003-09-08 11:25 51°17.1 2°39.54 6 19 18.6 100770 51
2003-09-08 11:26 51°17.25 2°39.43 5 24 18.3 100760 53
2003-09-08 11:27 51°17.26 2°39.3 1.5 43 18.1 100760 54
2003-09-08 11:28 51°17.25 2°39.29 0.3 126 18.2 100770 54
2003-09-08 11:29 51°17.24 2°39.28 0.6 94 18.3 100770 54
2003-09-08 11:30 51°17.23 2°39.28 0.5 60 18.3 100770 53
2003-09-08 11:31 51°17.23 2°39.26 0.7 73 18.3 100770 53
2003-09-08 11:32 51°17.22 2°39.25 0.2 56 18.2 100770 52
2003-09-08 11:33 51°17.22 2°39.24 0.5 56 18.1 100770 53
2003-09-08 11:34 51°17.22 2°39.22 0.2 51 18.1 100780 53
2003-09-08 11:35 51°17.22 2°39.2 0.4 67 18.1 100770 54
2003-09-08 11:36 51°17.23 2°39.18 1.1 59 18.1 100770 54
2003-09-08 11:37 51°17.25 2°39.15 1 81 18.1 100780 53
2003-09-08 11:38 51°17.26 2°39.13 1.7 58 18 100770 55
2003-09-08 11:39 51°17.27 2°39.12 1.4 61 17.8 100780 53
2003-09-08 11:40 51°17.29 2°39.12 1.2 63 17.6 100770 55
2003-09-08 11:41 51°17.3 2°39.11 1.2 78 17.5 100780 55
2003-09-08 11:42 51°17.32 2°39.12 1.2 80 17.5 100780 55
2003-09-08 11:43 51°17.35 2°39.12 2 31 17.4 100770 55
2003-09-08 11:44 51°17.42 2°39.18 2.9 352 17.4 100770 55
2003-09-08 11:45 51°17.38 2°39.34 3.4 356 17.6 100770 56
2003-09-08 11:46 51°17.31 2°39.3 1 18 17.6 100780 54
2003-09-08 11:47 51°17.29 2°39.25 0.9 92 17.7 100780 53
2003-09-08 11:48 51°17.28 2°39.25 0.6 110 17.8 100770 53
2003-09-08 11:49 51°17.28 2°39.25 0.5 138 17.8 100770 53
2003-09-08 11:50 51°17.28 2°39.25 0.4 138 17.9 100770 53
2003-09-08 11:51 51°17.28 2°39.26 0.5 141 18 100770 53
2003-09-08 11:52 51°17.28 2°39.26 1.2 128 18.1 100770 54
2003-09-08 11:53 51°17.27 2°39.22 3.3 37 18.1 100770 54
2003-09-08 11:54 51°17.36 2°39.15 5.1 7 17.9 100770 54
2003-09-08 11:55 51°17.48 2°39.29 4.7 1 17.8 100770 54
2003-09-08 11:56 51°17.5 2°39.45 2.2 338 17.8 100770 53
2003-09-08 11:57 51°17.48 2°39.53 1.5 213 18 100770 53
2003-09-08 11:58 51°17.48 2°39.55 0.3 206 18.1 100770 53
2003-09-08 11:59 51°17.47 2°39.47 3.2 26 18.1 100770 53
2003-09-08 12:00 51°17.47 2°39.34 1 44 18 100770 53
2003-09-08 12:01 51°17.46 2°39.33 0.5 170 17.9 100770 54
2003-09-08 12:02 51°17.46 2°39.33 1 148 18 100770 53
2003-09-08 12:03 51°17.46 2°39.33 1 147 18.1 100770 54
2003-09-08 12:04 51°17.45 2°39.34 1 154 18.1 100770 53
2003-09-08 12:05 51°17.45 2°39.34 1.2 164 18.1 100770 53
2003-09-08 12:06 51°17.44 2°39.35 1.4 168 18.1 100770 55
2003-09-08 12:07 51°17.44 2°39.36 1.7 161 18.1 100770 54
2003-09-08 12:08 51°17.44 2°39.38 2.2 131 18 100770 56
2003-09-08 12:09 51°17.44 2°39.4 2.4 143 17.9 100770 55
2003-09-08 12:10 51°17.45 2°39.42 1.1 76 17.9 100770 56
2003-09-08 12:11 51°17.43 2°39.41 1.5 96 17.9 100770 55
2003-09-08 12:12 51°17.42 2°39.4 1.2 140 17.9 100770 55
2003-09-08 12:13 51°17.42 2°39.4 1.4 140 18 100770 55
2003-09-08 12:14 51°17.42 2°39.4 1.2 125 18 100760 54
2003-09-08 12:15 51°17.42 2°39.41 1.7 147 18 100760 54
2003-09-08 12:16 51°17.42 2°39.42 1.5 151 18 100760 53
2003-09-08 12:17 51°17.42 2°39.43 1.5 164 17.9 100760 53
2003-09-08 12:18 51°17.4 2°39.45 1.4 297 17.8 100760 55
2003-09-08 12:19 51°17.37 2°39.55 4.5 338 17.9 100760 54
2003-09-08 12:20 51°17.41 2°39.79 6.8 345 18.1 100750 54
2003-09-08 12:21 51°17.47 2°40.07 5.7 335 18.1 100740 55
2003-09-08 12:22 51°17.47 2°40.2 2.6 311 18.1 100750 55
2003-09-08 12:23 51°17.46 2°40.16 2 254 18.2 100760 53
2003-09-08 12:24 51°17.46 2°40.14 2.4 289 18.1 100760 53
2003-09-08 12:25 51°17.46 2°40.14 2.6 274 18.1 100750 53
2003-09-08 12:26 51°17.47 2°40.14 2.9 268 18 100750 53
2003-09-08 12:27 51°17.48 2°40.15 2.9 261 18 100750 55
2003-09-08 12:28 51°17.48 2°40.16 3.3 273 17.9 100750 55
2003-09-08 12:29 51°17.49 2°40.18 3.2 272 17.9 100750 54
2003-09-08 12:30 51°17.49 2°40.19 3.3 275 17.9 100750 54
2003-09-08 12:31 51°17.5 2°40.21 3.4 273 17.9 100750 57
2003-09-08 12:32 51°17.52 2°40.3 4.9 2 18 100740 56
2003-09-08 12:33 51°17.6 2°40.27 3.8 59 18 100740 54
2003-09-08 12:34 51°17.58 2°40.13 2.5 69 17.8 100750 56
2003-09-08 12:35 51°17.57 2°40.06 3.2 144 17.7 100750 57
2003-09-08 12:36 51°17.57 2°40.05 2.2 166 17.6 100750 56
2003-09-08 12:37 51°17.57 2°40.04 2.7 157 17.6 100750 55
2003-09-08 12:38 51°17.57 2°40.04 3.1 144 17.6 100740 57
2003-09-08 12:39 51°17.57 2°40.05 3.5 140 17.6 100740 57
2003-09-08 12:40 51°17.57 2°40.05 3.4 123 17.5 100740 58
2003-09-08 12:41 51°17.57 2°40.05 3.6 107 17.6 100740 57
2003-09-08 12:42 51°17.58 2°40.05 3.4 110 17.6 100740 57
2003-09-08 12:43 51°17.59 2°40.06 3 103 17.6 100740 56
2003-09-08 12:44 51°17.6 2°40.07 3.1 97 17.7 100740 56
2003-09-08 12:45 51°17.6 2°40.07 3.8 91 17.7 100740 59
2003-09-08 12:46 51°17.62 2°40.08 3.8 61 17.6 100740 57
2003-09-08 12:47 51°17.69 2°40 7.7 34 17.5 100730 59
2003-09-08 12:48 51°17.82 2°39.82 8 36 17.4 100730 56
2003-09-08 12:49 51°17.95 2°39.62 8.2 36 17.4 100730 58
2003-09-08 12:50 51°18.04 2°39.54 4.6 54 17.3 100740 58
2003-09-08 12:51 51°18.06 2°39.56 4.4 109 17.2 100740 57
2003-09-08 12:52 51°18.08 2°39.57 4.1 133 17.4 100740 58
2003-09-08 12:53 51°18.09 2°39.57 2.8 147 17.4 100740 58
2003-09-08 12:54 51°18.09 2°39.58 3 155 17.4 100740 57
2003-09-08 12:55 51°18.09 2°39.58 1.5 194 17.4 100740 59
2003-09-08 12:56 51°18.08 2°39.59 1.1 177 17.7 100750 58
2003-09-08 12:57 51°18.07 2°39.6 2.4 205 17.9 100750 56
2003-09-08 12:58 51°18.06 2°39.62 3.7 221 17.9 100740 56
2003-09-08 12:59 51°18.05 2°39.65 3.1 233 17.8 100740 54
2003-09-08 13:00 51°18.04 2°39.68 2.8 262 17.7 100740 54
2003-09-08 13:01 51°18.03 2°39.78 5.1 322 17.7 100740 56
2003-09-08 13:02 51°18.09 2°39.95 8.2 352 17.9 100730 55
2003-09-08 13:03 51°18.21 2°40.23 9.6 1 17.9 100730 55
2003-09-08 13:04 51°18.37 2°40.37 7.4 13 17.8 100730 53
2003-09-08 13:05 51°18.41 2°40.4 2 64 17.8 100740 53
2003-09-08 13:06 51°18.39 2°40.42 3.7 30 17.9 100740 56
2003-09-08 13:07 51°18.4 2°40.44 3 39 17.8 100740 56
2003-09-08 13:08 51°18.41 2°40.46 4.9 28 17.7 100740 55
2003-09-08 13:09 51°18.41 2°40.48 5.8 247 17.8 100730 57
2003-09-08 13:10 51°18.42 2°40.5 4.7 17 18 100730 56
2003-09-08 13:11 51°18.42 2°40.52 4.1 49 18 100730 55
2003-09-08 13:12 51°18.43 2°40.54 3.5 63 18 100740 55
2003-09-08 13:13 51°18.43 2°40.56 3.7 87 17.8 100730 54
2003-09-08 13:14 51°18.44 2°40.59 4.2 120 17.7 100730 54
2003-09-08 13:15 51°18.44 2°40.61 3.8 120 17.7 100730 56
2003-09-08 13:16 51°18.44 2°40.63 3.7 111 17.7 100730 57
2003-09-08 13:17 51°18.45 2°40.63 3.5 99 17.8 100730 57
2003-09-08 13:18 51°18.46 2°40.63 3.7 92 17.7 100730 54
2003-09-08 13:19 51°18.47 2°40.62 3 99 17.7 100730 57
2003-09-08 13:20 51°18.49 2°40.6 1.4 65 17.8 100720 55
2003-09-08 13:21 51°18.55 2°40.46 8 35 17.8 100720 54
2003-09-08 13:22 51°18.71 2°40.29 10.1 24 17.6 100710 55
2003-09-08 13:23 51°18.93 2°40.21 8.7 21 17.6 100710 55
2003-09-08 13:24 51°19.06 2°40.27 6.6 5 17.7 100730 55
2003-09-08 13:25 51°19.11 2°40.3 2.7 6 17.7 100730 53
2003-09-08 13:26 51°19.12 2°40.31 4.5 352 17.8 100730 54
2003-09-08 13:27 51°19.13 2°40.32 3.4 352 17.8 100730 53
2003-09-08 13:28 51°19.14 2°40.32 3.7 353 17.8 100730 54
2003-09-08 13:29 51°19.16 2°40.34 3.4 5 17.9 100730 53
2003-09-08 13:30 51°19.18 2°40.36 4.1 29 17.9 100730 54
2003-09-08 13:31 51°19.21 2°40.37 4.5 54 17.8 100730 52
2003-09-08 13:32 51°19.23 2°40.37 4.1 91 17.6 100730 53
2003-09-08 13:33 51°19.25 2°40.35 4 113 17.6 100730 55
2003-09-08 13:34 51°19.25 2°40.31 1.6 223 17.6 100730 55
2003-09-08 13:35 51°19.15 2°40.34 4.7 283 17.7 100730 55
2003-09-08 13:36 51°19.12 2°40.37 2.4 185 17.8 100730 54
2003-09-08 13:37 51°19.12 2°40.37 4.1 176 17.9 100730 54
2003-09-08 13:38 51°19.12 2°40.37 3.3 172 17.9 100720 54
2003-09-08 13:39 51°19.12 2°40.37 3.7 168 17.7 100720 52
2003-09-08 13:40 51°19.12 2°40.36 4.5 165 17.7 100720 58
2003-09-08 13:41 51°19.13 2°40.35 4.2 141 17.7 100720 55
2003-09-08 13:42 51°19.13 2°40.35 4 139 17.6 100710 55
2003-09-08 13:43 51°19.14 2°40.34 4.2 135 17.7 100710 55
2003-09-08 13:44 51°19.15 2°40.33 4.8 119 17.6 100720 53
2003-09-08 13:45 51°19.17 2°40.31 5 76 17.7 100710 52
2003-09-08 13:46 51°19.25 2°40.31 7.1 359 17.6 100710 53
2003-09-08 13:47 51°19.32 2°40.42 7.3 352 17.7 100700 54
2003-09-08 13:48 51°19.38 2°40.52 6.8 355 17.8 100700 52
2003-09-08 13:49 51°19.41 2°40.55 5.2 346 17.8 100700 52
2003-09-08 13:50 51°19.43 2°40.56 5 350 17.8 100710 51
2003-09-08 13:51 51°19.44 2°40.56 4.8 344 17.9 100710 52
2003-09-08 13:52 51°19.45 2°40.56 4.2 340 17.9 100710 51
2003-09-08 13:53 51°19.45 2°40.55 4.4 325 17.9 100710 51
2003-09-08 13:54 51°19.46 2°40.54 5.9 294 18 100710 53
2003-09-08 13:55 51°19.47 2°40.53 3.7 291 18 100710 51
2003-09-08 13:56 51°19.48 2°40.53 4.7 285 18.1 100710 55
2003-09-08 13:57 51°19.48 2°40.53 4.6 306 18.1 100710 56
2003-09-08 13:58 51°19.53 2°40.63 9 9 18.1 100700 54
2003-09-08 13:59 51°19.68 2°40.78 10.2 8 17.9 100690 52
2003-09-08 14:00 51°19.85 2°40.93 10.6 3 17.8 100700 52
2003-09-08 14:01 51°20 2°41.12 8.7 4 17.7 100690 52
2003-09-08 14:02 51°20.06 2°41.21 5 345 17.6 100700 52
2003-09-08 14:03 51°20.07 2°41.21 4.1 288 17.8 100710 55
2003-09-08 14:04 51°20.08 2°41.14 3.8 284 17.8 100710 52
2003-09-08 14:05 51°20.09 2°41.14 5.1 311 17.9 100700 56
2003-09-08 14:06 51°20.09 2°41.14 4.7 295 17.9 100700 53
2003-09-08 14:07 51°20.1 2°41.15 3.5 300 17.9 100710 53
2003-09-08 14:08 51°20.1 2°41.16 4.5 314 18 100710 56
2003-09-08 14:09 51°20.11 2°41.17 4.6 308 18 100700 53
2003-09-08 14:10 51°20.11 2°41.18 4.2 296 18.1 100700 52
2003-09-08 14:11 51°20.11 2°41.18 4.7 295 18 100700 52
2003-09-08 14:12 51°20.12 2°41.19 5.1 288 18.1 100700 56
2003-09-08 14:13 51°20.12 2°41.19 4.5 290 18 100700 53
2003-09-08 14:14 51°20.12 2°41.24 6.4 336 18 100700 53
2003-09-08 14:15 51°20.18 2°41.31 6.4 22 18 100700 53
2003-09-08 14:16 51°20.26 2°41.3 5.5 34 18 100700 55
2003-09-08 14:17 51°20.27 2°41.29 3.6 23 17.9 100700 55
2003-09-08 14:18 51°20.27 2°41.28 4.4 27 17.9 100700 54
2003-09-08 14:19 51°20.28 2°41.27 4.1 42 17.8 100700 54
2003-09-08 14:20 51°20.29 2°41.26 5 31 17.7 100700 55
2003-09-08 14:21 51°20.29 2°41.25 4.8 56 17.6 100700 54
2003-09-08 14:22 51°20.3 2°41.23 4.8 60 17.6 100690 56
2003-09-08 14:23 51°20.3 2°41.22 4.4 69 17.6 100700 59
2003-09-08 14:24 51°20.3 2°41.21 4.2 83 17.5 100700 56
2003-09-08 14:25 51°20.31 2°41.19 4.9 96 17.6 100700 60
2003-09-08 14:26 51°20.31 2°41.18 4.2 106 17.6 100700 55
2003-09-08 14:27 51°20.31 2°41.15 5.8 83 17.7 100700 59
2003-09-08 14:28 51°20.39 2°41.14 8.6 356 17.7 100690 55
2003-09-08 14:29 51°20.39 2°41.36 8.9 334 17.7 100690 54
2003-09-08 14:30 51°20.33 2°41.68 10.4 332 17.8 100680 54
2003-09-08 14:31 51°20.24 2°42 9.3 332 17.9 100680 53
2003-09-08 14:32 51°20.13 2°42.3 9 329 17.9 100680 53
2003-09-08 14:33 51°20.01 2°42.59 8.6 323 17.9 100680 54
2003-09-08 14:34 51°19.89 2°42.89 8.9 332 18 100680 54
2003-09-08 14:35 51°19.77 2°43.19 8.1 328 18 100680 52
2003-09-08 14:36 51°19.66 2°43.49 9 327 18 100680 55
2003-09-08 14:37 51°19.54 2°43.79 8.3 328 18 100680 52
2003-09-08 14:38 51°19.43 2°44.09 8 328 18.1 100680 51
2003-09-08 14:39 51°19.31 2°44.41 8.9 326 18.1 100680 53
2003-09-08 14:40 51°19.2 2°44.7 9.2 323 18.1 100670 55
2003-09-08 14:41 51°19.08 2°45 8.8 325 18.1 100670 53
2003-09-08 14:42 51°18.96 2°45.29 9.3 324 18.1 100670 52
2003-09-08 14:43 51°18.85 2°45.59 8.7 324 18.1 100670 55
2003-09-08 14:44 51°18.73 2°45.89 9.5 326 18.1 100670 54
2003-09-08 14:45 51°18.61 2°46.19 9.6 328 18.1 100670 55
2003-09-08 14:46 51°18.5 2°46.49 9.2 318 18.1 100670 55
2003-09-08 14:47 51°18.38 2°46.79 9.1 330 18.1 100670 55
2003-09-08 14:48 51°18.26 2°47.09 9 328 18.1 100660 54
2003-09-08 14:49 51°18.14 2°47.38 9.3 325 18.1 100660 54
2003-09-08 14:50 51°18.03 2°47.67 8.5 322 18 100660 53
2003-09-08 14:51 51°17.91 2°47.96 9 322 18 100660 55
2003-09-08 14:52 51°17.8 2°48.26 10.6 326 18 100660 55
2003-09-08 14:53 51°17.71 2°48.57 10.8 327 18 100650 55
2003-09-08 14:54 51°17.62 2°48.89 9.7 327 18 100650 56
2003-09-08 14:55 51°17.53 2°49.2 9.6 325 18 100660 55
2003-09-08 14:56 51°17.44 2°49.52 10.3 326 18 100650 56
2003-09-08 14:57 51°17.34 2°49.83 10.6 323 18 100650 56
2003-09-08 14:58 51°17.26 2°50.15 11.2 327 18 100650 58
2003-09-08 14:59 51°17.17 2°50.45 10 326 18 100650 58
2003-09-08 15:00 51°17.07 2°50.77 10.6 323 17.9 100650 57
2003-09-08 15:01 51°16.97 2°51.07 9.7 322 17.9 100650 57
2003-09-08 15:02 51°16.83 2°51.34 8.9 318 17.9 100660 56
2003-09-08 15:03 51°16.65 2°51.57 8.7 317 17.9 100660 57
2003-09-08 15:04 51°16.49 2°51.8 9 318 17.9 100660 57
2003-09-08 15:05 51°16.33 2°52.03 8.4 316 17.9 100670 57
2003-09-08 15:06 51°16.16 2°52.28 9.7 316 17.9 100670 60
2003-09-08 15:07 51°16 2°52.51 9.1 319 17.9 100660 58
2003-09-08 15:08 51°15.82 2°52.72 8.5 312 17.9 100660 56
2003-09-08 15:09 51°15.63 2°52.91 9.1 322 17.9 100670 57
2003-09-08 15:10 51°15.44 2°53.09 8.9 317 17.9 100660 56
2003-09-08 15:11 51°15.27 2°53.31 8.7 39 17.9 100670 57
2003-09-08 15:12 51°15.1 2°53.53 9 315 17.9 100660 57
2003-09-08 15:13 51°14.93 2°53.75 10.2 319 17.9 100660 57
2003-09-08 15:14 51°14.78 2°54 10 320 17.9 100650 57
2003-09-08 15:15 51°14.66 2°54.27 10.7 326 17.9 100660 57
2003-09-08 15:16 51°14.55 2°54.55 10.8 329 18 100640 58
2003-09-08 15:17 51°14.44 2°54.82 10.7 328 17.9 100650 57
2003-09-08 15:18 51°14.35 2°55.07 8.6 317 18 100640 57
2003-09-08 15:19 51°14.29 2°55.21 7.3 298 18 100670 60
2003-09-08 15:20 51°14.24 2°55.28 6.9 286 18 100670 58
2003-09-08 15:21 51°14.2 2°55.35 5.1 276 18.1 100670 59
2003-09-08 15:22 51°14.15 2°55.39 4.8 261 18 100680 57
2003-09-08 15:23 51°14.09 2°55.43 4.3 267 18 100670 59
2003-09-08 15:24 51°14.04 2°55.46 3.9 286 18.1 100670 58
2003-09-08 15:25 51°13.93 2°55.54 2.2 285 18.2 100670 56
2003-09-08 15:26 51°13.82 2°55.62 5.2 276 18.2 100670 55
2003-09-08 15:27 51°13.75 2°55.72 4.3 302 18.3 100670 54
2003-09-08 15:28 51°13.69 2°55.83 4.4 42 18.4 100670 53
2003-09-08 15:29 51°13.65 2°55.94 6.4 322 18.5 100670 51
2003-09-08 15:30 51°13.62 2°56.04 6.9 285 18.6 100670 51
2003-09-08 15:31 51°13.6 2°56.1 4.2 260 18.7 100670 52
2003-09-08 15:32 51°13.59 2°56.11 1.5 277 18.6 100670 52
2003-09-08 15:33 51°13.6 2°56.11 3.1 284 18.7 100670 53
2003-09-08 15:34 51°13.6 2°56.11 1.1 291 18.8 100670 53
2003-09-08 15:35 51°13.6 2°56.11 4.3 302 18.8 100660 53